createdAt,value
2022-10-24T11:30:25.698Z,15.92
2022-10-24T11:31:28.791Z,13.15
2022-10-24T11:32:32.978Z,20.31
2022-10-24T11:33:36.068Z,15.46
2022-10-24T11:34:39.857Z,17.84
2022-10-24T11:35:43.144Z,21.00
2022-10-24T11:36:46.332Z,17.56
2022-10-24T11:37:49.952Z,16.95
2022-10-24T11:38:53.096Z,16.95
2022-10-24T11:39:56.082Z,19.36
2022-10-24T11:41:00.726Z,24.74
2022-10-24T11:42:04.896Z,22.19
2022-10-24T11:43:07.969Z,24.19
2022-10-24T11:44:10.625Z,19.95
2022-10-24T11:45:13.940Z,22.99
2022-10-24T11:46:17.213Z,23.46
2022-10-24T11:47:21.011Z,23.57
2022-10-24T11:48:24.202Z,19.96
2022-10-24T11:49:27.412Z,23.52
2022-10-24T11:50:30.406Z,18.04
2022-10-24T11:51:33.608Z,19.73
2022-10-24T11:52:36.912Z,19.94
2022-10-24T11:53:40.312Z,22.14
2022-10-24T11:54:43.292Z,19.15
2022-10-24T11:55:47.119Z,21.39
2022-10-24T11:56:50.565Z,21.94
2022-10-24T11:57:54.065Z,19.79
2022-10-24T11:58:57.452Z,24.73
2022-10-24T12:00:00.434Z,21.45
2022-10-24T12:01:04.245Z,25.26
2022-10-24T12:02:07.205Z,19.46
2022-10-24T12:03:11.005Z,21.90
2022-10-24T12:04:15.003Z,22.38
2022-10-24T12:05:20.194Z,24.24
2022-10-24T12:06:23.615Z,23.63
2022-10-24T12:07:26.904Z,22.61
2022-10-24T12:08:30.383Z,27.21
2022-10-24T12:09:34.555Z,30.06
2022-10-24T12:10:37.982Z,31.89
2022-10-24T12:11:41.565Z,36.73
2022-10-24T12:12:45.582Z,39.85
2022-10-24T12:13:48.781Z,44.31
2022-10-24T12:14:52.544Z,47.15
2022-10-24T12:15:55.826Z,50.92
2022-10-24T12:16:59.231Z,59.59
2022-10-24T12:18:02.318Z,57.80
2022-10-24T12:19:05.382Z,56.18
2022-10-24T12:20:08.921Z,56.10
2022-10-24T12:21:11.949Z,57.09
2022-10-24T12:22:15.944Z,39.58
2022-10-24T12:23:18.894Z,43.69
2022-10-24T12:24:25.191Z,38.25
2022-10-24T12:25:28.883Z,32.59
2022-10-24T12:26:32.653Z,26.36
2022-10-24T12:27:37.684Z,21.12
2022-10-24T12:28:41.184Z,25.61
2022-10-24T12:29:44.364Z,27.09
2022-10-24T12:31:57.371Z,30.77
2022-10-24T12:33:01.287Z,30.04
2022-10-24T12:34:04.369Z,22.14
2022-10-24T12:36:13.486Z,19.29
2022-10-24T12:37:16.373Z,19.25
2022-10-24T12:38:20.156Z,18.85
2022-10-24T12:39:23.594Z,12.98
2022-10-24T12:40:27.100Z,10.89
2022-10-24T12:41:30.733Z,9.14
2022-10-24T12:42:34.113Z,11.33
2022-10-24T12:43:37.210Z,11.11
2022-10-24T12:44:40.283Z,15.41
2022-10-24T12:45:44.698Z,14.71
2022-10-24T12:46:48.197Z,11.62
2022-10-24T12:47:51.522Z,14.25
2022-10-24T12:48:54.550Z,12.56
2022-10-24T12:49:58.347Z,10.08
2022-10-24T12:51:02.426Z,13.04
2022-10-24T12:52:05.914Z,12.98
2022-10-24T12:53:08.931Z,9.61
2022-10-24T12:54:11.525Z,10.76
2022-10-24T12:55:15.186Z,9.05
2022-10-24T12:57:21.944Z,9.82
2022-10-24T12:58:25.134Z,14.64
2022-10-24T12:59:29.436Z,12.75
2022-10-24T13:00:32.409Z,12.39
2022-10-24T13:01:35.822Z,10.55
2022-10-24T13:02:39.553Z,12.15
2022-10-24T13:03:43.085Z,15.11
2022-10-24T13:04:47.391Z,13.30
2022-10-24T13:05:50.175Z,13.59
2022-10-24T13:06:53.559Z,14.29
2022-10-24T13:07:56.745Z,15.52
2022-10-24T13:09:00.147Z,16.69
2022-10-24T13:10:03.297Z,17.28
2022-10-24T13:11:06.471Z,14.29
2022-10-24T13:12:10.479Z,12.99
2022-10-24T13:13:13.970Z,12.94
2022-10-24T13:14:17.857Z,12.41
2022-10-24T13:15:21.772Z,15.92
2022-10-24T13:16:25.179Z,15.76
2022-10-24T13:17:29.470Z,19.05
2022-10-24T13:18:32.877Z,16.51
2022-10-24T13:19:36.037Z,15.28
2022-10-24T13:20:39.206Z,17.78
2022-10-24T13:21:45.521Z,14.52
2022-10-24T13:22:48.015Z,17.32
2022-10-24T13:23:51.518Z,23.36
2022-10-24T13:24:54.797Z,21.40
2022-10-24T13:25:58.592Z,18.24
2022-10-24T13:27:02.205Z,24.82
2022-10-24T13:28:05.672Z,29.69
2022-10-24T13:29:09.079Z,24.04
2022-10-24T13:30:12.257Z,27.51
2022-10-24T13:31:15.139Z,33.62
2022-10-24T13:32:20.775Z,34.05
2022-10-24T13:33:23.337Z,30.56
2022-10-24T13:34:27.536Z,32.54
2022-10-24T13:35:30.524Z,31.95
2022-10-24T13:36:33.897Z,27.94
2022-10-24T13:37:37.885Z,32.09
2022-10-24T13:38:41.847Z,32.22
2022-10-24T13:39:44.778Z,30.56
2022-10-24T13:40:48.377Z,29.60
2022-10-24T13:41:51.958Z,36.71
2022-10-24T13:42:55.695Z,42.36
2022-10-24T13:43:58.866Z,44.74
2022-10-24T13:45:02.015Z,50.35
2022-10-24T13:46:08.296Z,71.45
2022-10-24T13:47:10.222Z,91.19
2022-10-24T13:48:16.335Z,110.68
2022-10-24T13:49:18.742Z,125.53
2022-10-24T13:50:21.723Z,102.12
2022-10-24T13:51:26.427Z,110.01
2022-10-24T13:52:30.745Z,116.06
2022-10-24T13:53:35.044Z,109.56
2022-10-24T13:54:38.732Z,86.08
2022-10-24T13:55:41.949Z,94.65
2022-10-24T13:56:45.196Z,116.83
2022-10-24T13:57:49.217Z,161.59
2022-10-24T13:58:52.805Z,156.48
2022-10-24T13:59:56.725Z,296.16
2022-10-24T14:00:59.938Z,296.18
2022-10-24T14:02:04.354Z,354.99
2022-10-24T14:03:08.625Z,422.86
2022-10-24T14:04:11.842Z,461.20
2022-10-24T14:05:14.973Z,406.90
2022-10-24T14:06:18.052Z,407.65
2022-10-24T14:07:21.360Z,284.92
2022-10-24T14:08:24.525Z,109.90
2022-10-24T14:09:28.039Z,84.23
2022-10-24T14:10:31.115Z,77.24
2022-10-24T14:11:34.880Z,73.95
2022-10-24T14:12:38.861Z,94.53
2022-10-24T14:13:41.969Z,120.65
2022-10-24T14:14:46.086Z,275.40
2022-10-24T14:15:49.557Z,311.16
2022-10-24T14:16:54.267Z,146.75
2022-10-24T14:17:57.568Z,171.63
2022-10-24T14:19:00.802Z,330.94
2022-10-24T14:20:03.953Z,643.69
2022-10-24T14:21:07.824Z,807.71
2022-10-24T14:22:11.043Z,534.09
2022-10-24T14:23:14.591Z,453.16
2022-10-24T14:24:18.397Z,519.42
2022-10-24T14:25:24.229Z,518.16
2022-10-24T14:26:28.202Z,491.06
2022-10-24T14:27:31.619Z,505.42
2022-10-24T14:28:36.436Z,589.86
2022-10-24T14:29:40.635Z,617.30
2022-10-24T14:30:44.126Z,419.06
2022-10-24T14:31:48.559Z,328.72
2022-10-24T14:32:51.912Z,307.55
2022-10-24T14:33:55.846Z,325.64
2022-10-24T14:34:59.062Z,463.54
2022-10-24T14:36:02.116Z,440.49
2022-10-24T14:37:05.268Z,277.63
2022-10-24T14:38:09.874Z,191.18
2022-10-24T14:39:13.155Z,229.04
2022-10-24T14:40:17.563Z,177.58
2022-10-24T14:41:21.160Z,165.19
2022-10-24T14:42:24.163Z,159.26
2022-10-24T14:43:27.125Z,140.85
2022-10-24T14:44:31.530Z,178.26
2022-10-24T14:45:35.128Z,150.01
2022-10-24T14:46:40.652Z,120.95
2022-10-24T14:47:45.010Z,125.64
2022-10-24T14:48:48.479Z,118.37
2022-10-24T14:49:52.299Z,93.96
2022-10-24T14:50:56.063Z,83.67
2022-10-24T14:51:59.142Z,82.36
2022-10-24T14:53:02.713Z,79.94
2022-10-24T14:54:06.328Z,86.29
2022-10-24T14:55:10.129Z,84.64
2022-10-24T14:56:13.019Z,80.94
2022-10-24T14:57:16.172Z,93.32
2022-10-24T14:58:20.215Z,101.40
2022-10-24T14:59:24.162Z,119.86
2022-10-24T15:00:27.532Z,150.36
2022-10-24T15:01:31.034Z,152.38
2022-10-24T15:02:37.498Z,206.49
2022-10-24T15:03:38.854Z,334.45
2022-10-24T15:04:42.650Z,471.57
2022-10-24T15:05:45.649Z,511.13
2022-10-24T15:06:49.415Z,543.73
2022-10-24T15:08:16.761Z,730.44
2022-10-24T15:09:00.983Z,633.66
2022-10-24T15:10:03.234Z,575.83
2022-10-24T15:11:09.781Z,401.25
2022-10-24T15:12:12.605Z,190.28
2022-10-24T15:13:15.687Z,158.25
2022-10-24T15:14:18.781Z,134.72
2022-10-24T15:15:23.278Z,136.69
2022-10-24T15:16:27.674Z,146.97
2022-10-24T15:17:32.821Z,147.99
2022-10-24T15:18:35.890Z,156.49
2022-10-24T15:19:39.144Z,164.39
2022-10-24T15:20:42.656Z,152.64
2022-10-24T15:21:46.442Z,103.79
2022-10-24T15:22:52.390Z,114.56
2022-10-24T15:23:55.189Z,98.23
2022-10-24T15:24:58.360Z,114.28
2022-10-24T15:26:01.448Z,103.68
2022-10-24T15:27:04.620Z,105.35
2022-10-24T15:28:07.932Z,105.31
2022-10-24T15:29:11.834Z,93.95
2022-10-24T15:30:15.902Z,74.62
2022-10-24T15:31:19.706Z,72.58
2022-10-24T15:32:22.984Z,63.08
2022-10-24T15:33:26.174Z,65.43
2022-10-24T15:34:30.150Z,62.56
2022-10-24T15:35:33.462Z,67.58
2022-10-24T15:36:36.724Z,67.36
2022-10-24T15:37:40.528Z,64.24
2022-10-24T15:38:43.668Z,67.80
2022-10-24T15:39:46.749Z,70.13
2022-10-24T15:40:50.183Z,69.92
2022-10-24T15:41:54.149Z,80.37
2022-10-24T15:42:57.672Z,80.31
2022-10-24T15:44:00.863Z,86.55
2022-10-24T15:45:04.344Z,93.76
2022-10-24T15:46:08.058Z,104.46
2022-10-24T15:47:11.213Z,105.01
2022-10-24T15:48:15.402Z,95.08
2022-10-24T15:49:18.393Z,98.46
2022-10-24T15:51:26.408Z,104.95
2022-10-24T15:52:30.484Z,97.49
2022-10-24T15:53:33.383Z,107.49
2022-10-24T15:54:37.691Z,115.25
2022-10-24T15:55:41.259Z,115.08
2022-10-24T15:56:44.195Z,119.87
2022-10-24T15:57:48.160Z,115.09
2022-10-24T15:58:51.581Z,115.49
2022-10-24T15:59:56.129Z,110.79
2022-10-24T16:00:59.333Z,101.15
2022-10-24T16:02:02.280Z,100.36
2022-10-24T16:03:06.813Z,100.56
2022-10-24T16:04:10.535Z,101.69
2022-10-24T16:05:14.321Z,88.16
2022-10-24T16:06:17.615Z,111.84
2022-10-24T16:07:20.894Z,94.15
2022-10-24T16:08:24.202Z,89.08
2022-10-24T16:09:27.371Z,113.48
2022-10-24T16:10:30.332Z,206.58
2022-10-24T16:11:33.924Z,232.14
2022-10-24T16:12:37.698Z,294.18
2022-10-24T16:13:41.520Z,291.74
2022-10-24T16:14:44.897Z,207.56
2022-10-24T16:15:48.379Z,212.86
2022-10-24T16:16:54.978Z,286.01
2022-10-24T16:17:58.333Z,446.70
2022-10-24T16:19:01.613Z,456.46
2022-10-24T16:20:04.692Z,237.03
2022-10-24T16:21:08.101Z,189.70
2022-10-24T16:22:11.671Z,249.16
2022-10-24T16:23:14.570Z,177.30
2022-10-24T16:24:17.937Z,226.40
2022-10-24T16:25:21.614Z,246.62
2022-10-24T16:26:24.923Z,204.88
2022-10-24T16:27:27.894Z,147.21
2022-10-24T16:28:31.313Z,73.17
2022-10-24T16:29:34.571Z,51.60
2022-10-24T16:30:38.138Z,45.12
2022-10-24T16:31:42.964Z,36.38
2022-10-24T16:32:47.019Z,35.99
2022-10-24T16:33:51.272Z,36.42
2022-10-24T16:34:59.495Z,38.34
2022-10-24T16:36:03.210Z,43.74
2022-10-24T16:37:06.880Z,46.70
2022-10-24T16:38:09.872Z,44.06
2022-10-24T16:39:14.513Z,44.45
2022-10-24T16:40:17.654Z,42.63
2022-10-24T16:41:23.929Z,41.21
2022-10-24T16:42:29.931Z,38.25
2022-10-24T16:43:36.409Z,34.98
2022-10-24T16:44:39.167Z,30.83
2022-10-24T16:45:42.952Z,35.85
2022-10-24T16:46:47.271Z,45.24
2022-10-24T16:47:51.140Z,38.76
2022-10-24T16:48:54.839Z,27.10
2022-10-24T16:49:58.785Z,32.65
2022-10-24T16:51:01.972Z,26.05
2022-10-24T16:52:06.255Z,23.43
2022-10-24T16:53:10.359Z,21.64
2022-10-24T16:54:14.250Z,17.88
2022-10-24T16:55:17.052Z,17.05
2022-10-24T16:56:20.551Z,16.08
2022-10-24T16:58:28.417Z,10.51
2022-10-24T16:59:31.534Z,7.87
2022-10-24T17:00:34.860Z,7.41
2022-10-24T17:01:37.975Z,7.59
2022-10-24T17:02:41.391Z,7.78
2022-10-24T17:03:44.644Z,10.09
2022-10-24T17:04:47.950Z,6.37
2022-10-24T17:05:50.932Z,5.95
2022-10-24T17:06:54.413Z,5.83
2022-10-24T17:07:57.083Z,7.12
2022-10-24T17:09:00.630Z,7.82
2022-10-24T17:10:04.055Z,6.96
2022-10-24T17:11:25.746Z,6.48
2022-10-24T17:12:12.224Z,7.23
2022-10-24T17:13:16.043Z,8.55
2022-10-24T17:14:19.536Z,10.40
2022-10-24T17:15:22.923Z,9.04
2022-10-24T17:16:26.133Z,8.36
2022-10-24T17:17:29.027Z,8.98
2022-10-24T17:18:32.707Z,7.62
2022-10-24T17:19:36.754Z,9.19
2022-10-24T17:20:39.851Z,8.01
2022-10-24T17:21:43.058Z,6.95
2022-10-24T17:22:46.139Z,6.47
2022-10-24T17:23:49.213Z,6.71
2022-10-24T17:24:52.509Z,8.54
2022-10-24T17:25:57.181Z,10.71
2022-10-24T17:27:00.712Z,12.18
2022-10-24T17:28:03.768Z,13.01
2022-10-24T17:29:08.056Z,15.51
2022-10-24T17:30:11.256Z,16.40
2022-10-24T17:31:14.426Z,11.21
2022-10-24T17:32:17.736Z,7.59
2022-10-24T17:33:20.504Z,7.80
2022-10-24T17:34:23.763Z,8.80
2022-10-24T17:35:27.480Z,9.45
2022-10-24T17:36:31.382Z,8.39
2022-10-24T17:37:34.654Z,9.55
2022-10-24T17:38:39.482Z,9.46
2022-10-24T17:39:45.700Z,9.43
2022-10-24T17:40:48.593Z,10.24
2022-10-24T17:41:52.023Z,11.28
2022-10-24T17:42:55.663Z,12.05
2022-10-24T17:43:59.055Z,12.18
2022-10-24T17:45:02.754Z,11.04
2022-10-24T17:46:05.769Z,10.25
2022-10-24T17:47:09.524Z,10.84
2022-10-24T17:48:13.115Z,13.19
2022-10-24T17:49:19.339Z,15.17
2022-10-24T17:50:21.952Z,19.29
2022-10-24T17:51:25.749Z,17.01
2022-10-24T17:52:29.529Z,20.69
2022-10-24T17:53:32.801Z,16.69
2022-10-24T17:54:36.832Z,17.54
2022-10-24T17:55:48.286Z,17.59
2022-10-24T17:56:46.351Z,13.26
2022-10-24T17:57:49.779Z,15.05
2022-10-24T17:58:53.428Z,16.16
2022-10-24T17:59:57.251Z,13.26
2022-10-24T18:01:01.021Z,14.44
2022-10-24T18:02:05.669Z,13.15
2022-10-24T18:03:08.979Z,10.26
2022-10-24T18:04:12.409Z,11.58
2022-10-24T18:05:15.901Z,12.50
2022-10-24T18:06:19.353Z,10.82
2022-10-24T18:07:22.604Z,10.69
2022-10-24T18:08:26.266Z,13.13
2022-10-24T18:09:30.186Z,11.34
2022-10-24T18:10:33.964Z,11.06
2022-10-24T18:11:37.973Z,12.56
2022-10-24T18:12:41.300Z,14.13
2022-10-24T18:13:45.352Z,13.71
2022-10-24T18:14:49.347Z,15.19
2022-10-24T18:15:53.130Z,14.29
2022-10-24T18:16:56.832Z,13.92
2022-10-24T18:18:00.328Z,15.52
2022-10-24T18:19:04.126Z,20.21
2022-10-24T18:20:07.611Z,17.61
2022-10-24T18:21:11.873Z,17.32
2022-10-24T18:22:15.628Z,20.36
2022-10-24T18:23:19.314Z,22.19
2022-10-24T18:24:24.034Z,23.06
2022-10-24T18:25:27.417Z,22.67
2022-10-24T18:26:30.795Z,20.22
2022-10-24T18:27:35.619Z,21.19
2022-10-24T18:28:39.723Z,18.61
2022-10-24T18:29:44.648Z,20.96
2022-10-24T18:30:48.540Z,22.69
2022-10-24T18:31:52.233Z,20.40
2022-10-24T18:32:59.724Z,18.45
2022-10-24T18:34:06.216Z,18.11
2022-10-24T18:35:08.640Z,15.58
2022-10-24T18:36:11.639Z,17.01
2022-10-24T18:37:15.111Z,20.12
2022-10-24T18:38:18.435Z,20.42
2022-10-24T18:39:25.058Z,21.76
2022-10-24T18:40:27.973Z,24.93
2022-10-24T18:41:31.224Z,25.31
2022-10-24T18:42:34.219Z,27.46
2022-10-24T18:43:38.561Z,23.41
2022-10-24T18:44:42.503Z,22.29
2022-10-24T18:45:47.843Z,25.83
2022-10-24T18:46:51.637Z,33.79
2022-10-24T18:47:55.937Z,31.51
2022-10-24T18:49:00.463Z,36.39
2022-10-24T18:50:05.133Z,43.79
2022-10-24T18:51:09.193Z,51.35
2022-10-24T18:52:21.053Z,44.61
2022-10-24T18:53:24.245Z,46.06
2022-10-24T18:54:27.415Z,48.07
2022-10-24T18:55:31.107Z,47.78
2022-10-24T18:56:35.332Z,40.47
2022-10-24T18:57:39.840Z,43.44
2022-10-24T18:58:43.019Z,49.53
2022-10-24T18:59:46.922Z,57.57
2022-10-24T19:00:51.107Z,44.67
2022-10-24T19:01:55.644Z,48.13
2022-10-24T19:02:58.975Z,45.82
2022-10-24T19:04:02.096Z,38.77
2022-10-24T19:05:05.905Z,37.49
2022-10-24T19:06:11.352Z,43.35
2022-10-24T19:07:14.732Z,36.01
2022-10-24T19:08:18.407Z,30.02
2022-10-24T19:09:21.695Z,30.32
2022-10-24T19:10:25.298Z,44.22
2022-10-24T19:11:29.190Z,34.77
2022-10-24T19:12:32.401Z,37.01
2022-10-24T19:13:35.862Z,36.58
2022-10-24T19:14:39.766Z,39.65
2022-10-24T19:15:43.892Z,44.10
2022-10-24T19:16:48.068Z,37.77
2022-10-24T19:17:53.187Z,33.57
2022-10-24T19:18:57.205Z,34.30
2022-10-24T19:20:00.575Z,36.16
2022-10-24T19:21:04.065Z,41.38
2022-10-24T19:22:07.466Z,35.27
2022-10-24T19:23:11.685Z,32.01
2022-10-24T19:24:15.355Z,33.21
2022-10-24T19:25:18.531Z,33.39
2022-10-24T19:26:21.938Z,39.72
2022-10-24T19:27:25.515Z,33.13
2022-10-24T19:28:29.510Z,36.19
2022-10-24T19:29:33.634Z,39.86
2022-10-24T19:30:37.130Z,34.93
2022-10-24T19:31:40.806Z,33.24
2022-10-24T19:32:46.390Z,29.99
2022-10-24T19:33:51.018Z,33.78
2022-10-24T19:34:54.754Z,34.14
2022-10-24T19:35:58.351Z,32.69
2022-10-24T19:37:02.154Z,37.41
2022-10-24T19:38:05.120Z,31.94
2022-10-24T19:39:08.931Z,30.87
2022-10-24T19:40:12.391Z,31.92
2022-10-24T19:41:15.917Z,33.24
2022-10-24T19:42:19.217Z,36.07
2022-10-24T19:43:22.795Z,38.12
2022-10-24T19:44:26.029Z,36.94
2022-10-24T19:45:29.958Z,33.87
2022-10-24T19:46:34.066Z,36.16
2022-10-24T19:47:37.854Z,38.22
2022-10-24T19:48:41.759Z,38.71
2022-10-24T19:49:45.964Z,39.94
2022-10-24T19:50:49.842Z,44.11
2022-10-24T19:51:53.967Z,44.83
2022-10-24T19:52:57.442Z,43.21
2022-10-24T19:54:01.549Z,41.93
2022-10-24T19:55:05.547Z,39.29
2022-10-24T19:56:08.934Z,42.32
2022-10-24T19:57:13.354Z,38.14
2022-10-24T19:58:17.653Z,42.56
2022-10-24T19:59:21.552Z,50.61
2022-10-24T20:00:25.652Z,47.74
2022-10-24T20:01:29.851Z,44.51
2022-10-24T20:02:33.666Z,42.59
2022-10-24T20:03:37.661Z,34.81
2022-10-24T20:04:42.645Z,35.26
2022-10-24T20:05:47.517Z,38.31
2022-10-24T20:06:51.402Z,39.39
2022-10-24T20:07:54.790Z,36.89
2022-10-24T20:08:59.091Z,36.14
2022-10-24T20:10:02.593Z,32.58
2022-10-24T20:11:06.406Z,32.73
2022-10-24T20:12:09.668Z,29.98
2022-10-24T20:13:13.476Z,36.14
2022-10-24T20:14:17.100Z,32.39
2022-10-24T20:15:20.661Z,30.63
2022-10-24T20:16:24.656Z,31.06
2022-10-24T20:17:31.740Z,35.99
2022-10-24T20:18:35.214Z,38.53
2022-10-24T20:19:38.393Z,35.77
2022-10-24T20:20:42.196Z,32.20
2022-10-24T20:21:47.516Z,35.25
2022-10-24T20:22:51.113Z,28.59
2022-10-24T20:23:54.731Z,28.34
2022-10-24T20:24:58.496Z,31.40
2022-10-24T20:26:01.910Z,28.00
2022-10-24T20:28:08.762Z,25.44
2022-10-24T20:29:12.558Z,26.94
2022-10-24T20:30:15.223Z,28.85
2022-10-24T20:31:19.034Z,25.92
2022-10-24T20:32:22.603Z,20.72
2022-10-24T20:33:25.860Z,24.14
2022-10-24T20:34:29.180Z,24.18
2022-10-24T20:35:32.567Z,24.86
2022-10-24T20:36:35.756Z,25.15
2022-10-24T20:37:40.070Z,23.32
2022-10-24T20:38:44.986Z,25.90
2022-10-24T20:39:48.371Z,24.10
2022-10-24T20:40:51.856Z,23.87
2022-10-24T20:41:55.661Z,23.69
2022-10-24T20:42:59.347Z,23.68
2022-10-24T20:44:02.887Z,25.86
2022-10-24T20:45:06.364Z,25.16
2022-10-24T20:46:13.205Z,27.25
2022-10-24T20:47:16.816Z,28.72
2022-10-24T20:48:21.086Z,29.21
2022-10-24T20:49:24.379Z,28.71
2022-10-24T20:50:27.665Z,26.60
2022-10-24T20:51:30.959Z,28.55
2022-10-24T20:52:34.341Z,23.82
2022-10-24T20:53:37.831Z,27.05
2022-10-24T20:54:41.141Z,30.52
2022-10-24T20:55:45.057Z,31.08
2022-10-24T20:56:49.118Z,26.61
2022-10-24T20:57:53.103Z,26.66
2022-10-24T20:58:56.292Z,25.30
2022-10-24T20:59:59.986Z,23.09
2022-10-24T21:01:03.751Z,23.23
2022-10-24T21:02:07.090Z,22.16
2022-10-24T21:03:10.768Z,22.17
2022-10-24T21:04:16.936Z,22.91
2022-10-24T21:05:19.373Z,21.87
2022-10-24T21:06:23.073Z,20.00
2022-10-24T21:07:26.364Z,21.53
2022-10-24T21:08:29.639Z,21.92
2022-10-24T21:09:33.738Z,21.56
2022-10-24T21:10:36.921Z,21.80
2022-10-24T21:11:40.109Z,24.34
2022-10-24T21:12:47.576Z,21.04
2022-10-24T21:13:49.474Z,21.04
2022-10-24T21:14:52.997Z,20.38
2022-10-24T21:15:56.719Z,20.69
2022-10-24T21:17:00.219Z,19.09
2022-10-24T21:18:03.626Z,20.37
2022-10-24T21:19:06.873Z,20.88
2022-10-24T21:20:10.684Z,23.15
2022-10-24T21:21:14.211Z,25.20
2022-10-24T21:22:17.151Z,23.22
2022-10-24T21:23:20.457Z,22.97
2022-10-24T21:24:24.248Z,20.02
2022-10-24T21:25:27.610Z,22.85
2022-10-24T21:26:31.305Z,21.89
2022-10-24T21:27:35.399Z,20.21
2022-10-24T21:28:38.685Z,19.63
2022-10-24T21:29:41.773Z,21.41
2022-10-24T21:30:44.981Z,23.36
2022-10-24T21:31:48.775Z,21.56
2022-10-24T21:32:51.878Z,20.32
2022-10-24T21:33:55.353Z,22.81
2022-10-24T21:34:59.171Z,23.91
2022-10-24T21:36:03.129Z,24.09
2022-10-24T21:37:09.063Z,20.95
2022-10-24T21:38:12.247Z,21.67
2022-10-24T21:39:15.761Z,20.74
2022-10-24T21:40:19.726Z,18.69
2022-10-24T21:41:22.815Z,17.87
2022-10-24T21:42:25.891Z,16.46
2022-10-24T21:43:29.080Z,17.44
2022-10-24T21:44:32.667Z,17.62
2022-10-24T21:45:35.765Z,18.72
2022-10-24T21:46:39.440Z,20.60
2022-10-24T21:47:42.513Z,19.78
2022-10-24T21:48:45.597Z,19.71
2022-10-24T21:49:48.687Z,20.32
2022-10-24T21:50:52.618Z,17.05
2022-10-24T21:51:56.373Z,17.79
2022-10-24T21:53:00.293Z,16.89
2022-10-24T21:54:03.761Z,17.00
2022-10-24T21:55:07.456Z,13.70
2022-10-24T21:56:10.787Z,12.80
2022-10-24T21:57:14.220Z,14.08
2022-10-24T21:58:17.318Z,13.34
2022-10-24T21:59:20.480Z,14.43
2022-10-24T22:00:23.457Z,17.25
2022-10-24T22:01:26.815Z,15.76
2022-10-24T22:02:29.647Z,14.66
2022-10-24T22:03:32.501Z,14.65
2022-10-24T22:04:35.896Z,13.05
2022-10-24T22:05:39.900Z,11.97
2022-10-24T22:06:43.781Z,10.65
2022-10-24T22:07:49.531Z,10.25
2022-10-24T22:08:52.293Z,9.51
2022-10-24T22:09:55.787Z,8.80
2022-10-24T22:10:59.385Z,9.68
2022-10-24T22:12:03.064Z,9.99
2022-10-24T22:13:06.353Z,8.92
2022-10-24T22:14:09.229Z,11.76
2022-10-24T22:15:12.618Z,11.26
2022-10-24T22:16:15.995Z,9.63
2022-10-24T22:17:19.286Z,8.66
2022-10-24T22:18:22.672Z,8.89
2022-10-24T22:19:26.059Z,6.59
2022-10-24T22:20:29.454Z,6.28
2022-10-24T22:21:32.335Z,5.16
2022-10-24T22:22:35.614Z,6.37
2022-10-24T22:23:38.993Z,5.30
2022-10-24T22:24:42.579Z,5.35
2022-10-24T22:25:45.780Z,5.01
2022-10-24T22:26:49.158Z,5.64
2022-10-24T22:27:53.273Z,5.09
2022-10-24T22:28:56.639Z,4.27
2022-10-24T22:29:59.930Z,4.20
2022-10-24T22:31:03.930Z,5.15
2022-10-24T22:32:07.307Z,4.17
2022-10-24T22:33:10.697Z,4.59
2022-10-24T22:34:13.972Z,5.08
2022-10-24T22:35:17.263Z,4.42
2022-10-24T22:36:20.449Z,4.28
2022-10-24T22:37:23.628Z,4.68
2022-10-24T22:38:26.707Z,4.95
2022-10-24T22:39:31.120Z,4.55
2022-10-24T22:40:34.506Z,5.34
2022-10-24T22:41:37.689Z,6.16
2022-10-24T22:42:41.183Z,4.32
2022-10-24T22:45:00.344Z,5.18
2022-10-24T22:46:03.344Z,4.90
2022-10-24T22:47:06.603Z,4.25
2022-10-24T22:48:09.682Z,5.11
2022-10-24T22:49:12.978Z,4.47
2022-10-24T22:51:23.629Z,4.83
2022-10-24T22:52:26.707Z,6.12
2022-10-24T22:53:29.787Z,5.58
2022-10-24T22:54:33.086Z,4.31
2022-10-24T22:55:36.248Z,4.94
2022-10-24T22:56:39.132Z,4.42
2022-10-24T22:57:42.116Z,4.04
2022-10-24T22:58:45.185Z,3.42
2022-10-24T22:59:48.275Z,4.12
2022-10-24T23:00:51.452Z,4.89
2022-10-24T23:01:54.852Z,5.53
2022-10-24T23:02:58.016Z,3.69
2022-10-24T23:04:01.092Z,4.61
2022-10-24T23:05:04.379Z,4.11
2022-10-24T23:06:08.074Z,5.19
2022-10-24T23:07:11.158Z,3.28
2022-10-24T23:08:14.542Z,5.07
2022-10-24T23:09:18.034Z,6.59
2022-10-24T23:10:21.109Z,5.03
2022-10-24T23:11:25.315Z,4.50
2022-10-24T23:12:28.804Z,4.34
2022-10-24T23:13:32.309Z,3.68
2022-10-24T23:14:35.382Z,6.13
2022-10-24T23:15:38.455Z,5.22
2022-10-24T23:16:41.634Z,7.44
2022-10-24T23:17:45.295Z,4.41
2022-10-24T23:18:49.686Z,4.61
2022-10-24T23:19:54.156Z,4.90
2022-10-24T23:20:57.835Z,4.93
2022-10-24T23:22:00.944Z,4.48
2022-10-24T23:23:15.880Z,4.68
2022-10-24T23:24:08.642Z,4.59
2022-10-24T23:25:12.089Z,3.90
2022-10-24T23:26:14.978Z,6.47
2022-10-24T23:27:18.272Z,6.50
2022-10-24T23:28:21.965Z,4.19
2022-10-24T23:29:25.242Z,3.91
2022-10-24T23:30:28.931Z,3.62
2022-10-24T23:31:32.123Z,3.37
2022-10-24T23:32:35.102Z,3.36
2022-10-24T23:33:38.494Z,3.38
2022-10-24T23:34:41.659Z,3.89
2022-10-24T23:35:44.854Z,3.24
2022-10-24T23:36:48.637Z,3.92
2022-10-24T23:37:51.927Z,4.85
2022-10-24T23:38:55.000Z,3.33
2022-10-24T23:39:57.893Z,2.80
2022-10-24T23:41:01.055Z,3.33
2022-10-24T23:42:04.451Z,4.05
2022-10-24T23:43:07.325Z,3.70
2022-10-24T23:44:12.512Z,3.42
2022-10-24T23:45:15.526Z,3.32
2022-10-24T23:46:19.217Z,3.10
2022-10-24T23:47:22.718Z,3.07
2022-10-24T23:48:25.992Z,2.55
2022-10-24T23:49:29.386Z,2.95
2022-10-24T23:50:32.764Z,3.75
2022-10-24T23:51:35.955Z,4.05
2022-10-24T23:52:38.926Z,2.84
2022-10-24T23:53:42.427Z,2.97
2022-10-24T23:54:46.005Z,3.84
2022-10-24T23:55:49.820Z,2.68
2022-10-24T23:56:53.019Z,3.39
2022-10-24T23:57:56.364Z,2.94
2022-10-24T23:59:00.700Z,3.57
